オークランド の空港の天気 - METARとTAF

オークランド国際空港 ( NZAA / AKL ) - ニュージーランド オークランド|オークランド
飛行場実況気象(Metar)
観測時間10/16 06:00 NZDT (10/15 17:00 UTC)
風向・風速南西 7m/s
視程10km以上
天気現象
なし
気温13℃
湿度88%
気圧995hPa
METARNZAA 151700Z AUTO 23013KT 9999 NCD 13/11 Q0995 TEMPO FM1800 BKN014
過去の天気等 Google飛行場航空写真 Wunderground天気予報

過去48時間のMETAR

飛行場予報(TAF)
発表時間: 10/16 00:14 NZDT (10/15 11:14 UTC)
予報対象時間: 16日1時 NZDT ~ 17日1時 NZDT
風向・風速南 5m/s
視程10km以上
少しの雲 雲底高度 300m
16日7時 NZDT から
風向・風速南西 8m/s 瞬間風速 13m/s
視程10km以上
全天の4割程度の雲 雲底高度 460m
全天の8割程度の雲 雲底高度 760m
16日7時 NZDT ~ 16日10時 NZDT に一時的に
全天の8割程度の雲 雲底高度 370m
16日11時 NZDT から
風向・風速西南西 10m/s 瞬間風速 18m/s
視程10km以上
天気現象弱いしゅう雨
少しの雲 雲底高度 460m
全天の8割程度の雲 雲底高度 910m
16日19時 NZDT ~ 16日21時 NZDT に徐々に
風向・風速西南西 8m/s 瞬間風速 13m/s
TAF NZAA 151114Z 1512/1612 18010KT 9999 FEW010
FM151800 22015G25KT 9999 SCT015 BKN025
TEMPO 1518/1521 BKN012
FM152200 24020G35KT 9999 -SHRA FEW015 BKN030
BECMG 1606/1608 24015G25KT